Hauptseite
METAR-TAF:

METAR-TAF

Flughäfen :

Flughafen Longyearbyen

Longyearbyen, Norwegen

Breite: 78-15N, Länge: 015-28E, Höhe: 2 m

Beobachtung

Neuester Wetterbericht von vor 25 Minuten, um 20:50 UTC
Wind 18 kt aus Ost/Südost
Temperatur -1°C
Luftfeuchtigkeit 86%
Luftdruck 998 hPa
Sichtweite: 2000 m
Schnee leicht

METAR: ENSB 202050Z 12018KT 2000 -SN VV008 M01/M03 Q0998 RMK WIND 1400FT 13018KT

Zeit: 23:15 (21:15 UTC)

Prognose

Gültige Prognose vom 20 um 18 UTC bis 21 um 18 UTC
Wind 15 kt aus Ost/Südost
Sichtweite 10 km oder mehr
Leicht bewölkt in der Höhe von 1000 ft
Durchbrochene Bewölkung in der Höhe von 4000 ft
Zeitweise
vom 20 um 18 UTC bis 21 um 12 UTC
Wind 25 kt aus Ost/Südost, Böen bis zu 35 kt
Wahrscheinlichkeit 40%
vom 20 um 18 UTC bis 21 um 06 UTC
Sichtweite: 2000 m
in der Höhe von 800 ft
Schnee

TAF: ENSB 2018/2118 11015KT 9999 FEW010 BKN040 TEMPO 2018/2112 11025G35KT PROB40 2018/2106 2000 SN VV008

Wetterbeobachtungen und Prognosen von mehr als 4000 Flughäfen (METAR und TAF Bericht).

Die verfügbaren Stationen werden durch gelbe und rote Markierungen auf der Karte dargestellt.

Führen Sie die Maus auf sie, um den Namen der Station zu sehen.

Darauf klicken, um die Beobachtung von Wetterbeobachtungen und Prognosen zu sehen.

Um die Karte zu ändern : klicken Sie auf den grünen Tasten mit einem schwarzen Kreuz Zum Vergrößern, auf den grünen Button mit einem Gedankenstrich zu verkleinern, oder auf die grünen Pfeile für benachbarte Karten.


METAR-TAF: